Time;durP1;ratioP1;P1;durP2;ratioP2;P2;SDS_P1;SDS_P2;PMS_P1;PMS_P2;Temp;Humidity;BMP_temperature;BMP_pressure;BME280_temperature;BME280_humidity;BME280_pressure;Samples;Min_cycle;Max_cycle;Signal;HPM_P1;HPM_P2
2023/07/26 05:35:48;;;;;;;44.03;41.55;;;;;;;;;;5807054;23;20056;31
2023/07/26 05:42:27;;;;;;;56.42;52.60;;;;;;;;;;5000131;28;20049;-93
2023/07/26 05:45:08;;;;;;;45.67;43.10;;;;;;;;;;5004428;28;20006;-92
2023/07/26 06:01:58;;;;;;;37.67;34.65;;;;;;;;;;5029697;23;20507;-94
2023/07/26 06:07:59;;;;;;;42.92;38.30;;;;;;;;;;5233414;23;21245;-89
2023/07/26 06:13:50;;;;;;;32.78;30.85;;;;;;;;;;4999473;28;20085;-93
2023/07/26 06:22:31;;;;;;;35.17;33.10;;;;;;;;;;4938986;29;20051;-96
2023/07/26 06:25:07;;;;;;;35.42;33.53;;;;;;;;;;4923639;29;20144;-92
2023/07/26 06:27:34;;;;;;;82.03;77.28;;;;;;;;;;4924805;29;20136;-91
2023/07/26 06:30:18;;;;;;;36.92;34.67;;;;;;;;;;4925039;29;20079;-94
2023/07/26 06:32:47;;;;;;;33.03;31.13;;;;;;;;;;4920903;29;20064;-93
2023/07/26 06:35:29;;;;;;;42.10;39.53;;;;;;;;;;4938967;29;20031;-96
2023/07/26 06:38:09;;;;;;;43.20;39.83;;;;;;;;;;4946405;28;20131;-93
2023/07/26 06:40:35;;;;;;;43.03;40.55;;;;;;;;;;4992271;28;20065;-93
2023/07/26 06:43:29;;;;;;;47.88;44.47;;;;;;;;;;4962798;28;20046;-96
2023/07/26 06:45:55;;;;;;;39.38;37.10;;;;;;;;;;4960456;28;20055;-94
2023/07/26 06:48:27;;;;;;;38.88;36.58;;;;;;;;;;4971140;28;20035;-95
2023/07/26 07:14:24;;;;;;;50.10;47.22;;;;;;;;;;5945669;23;20054;-95
2023/07/26 07:16:59;;;;;;;43.90;41.13;;;;;;;;;;5205020;23;21324;-93
2023/07/26 07:26:01;;;;;;;43.33;40.85;;;;;;;;;;4964666;29;20067;-96
2023/07/26 07:28:57;;;;;;;46.72;43.88;;;;;;;;;;5017838;28;20026;-95
2023/07/26 07:31:32;;;;;;;43.22;40.92;;;;;;;;;;4981167;28;20042;-94
2023/07/26 08:43:13;;;;;;;45.90;43.40;;;;;;;;;;4915731;29;20043;-95
2023/07/26 08:49:02;;;;;;;;;;;;;;;;;;;;;
2023/07/26 08:51:34;;;;;;;45.40;42.65;;;;;;;;;;4951944;29;20049;-94
2023/07/26 08:54:03;;;;;;;43.30;40.80;;;;;;;;;;4937055;29;20115;-94
2023/07/26 08:56:33;;;;;;;42.03;39.70;;;;;;;;;;4936214;29;20311;-94
2023/07/26 08:59:08;;;;;;;43.30;40.90;;;;;;;;;;4935501;29;20237;-94
2023/07/26 09:01:43;;;;;;;49.38;46.53;;;;;;;;;;4937874;29;20023;-93
2023/07/26 09:04:33;;;;;;;45.35;42.72;;;;;;;;;;4938669;29;20539;-95
2023/07/26 09:10:08;;;;;;;46.47;43.97;;;;;;;;;;4953386;28;20071;-94
2023/07/26 09:12:40;;;;;;;49.33;46.63;;;;;;;;;;4952532;28;20028;-93
2023/07/26 09:15:10;;;;;;;52.92;49.92;;;;;;;;;;4944936;29;20028;-94
2023/07/26 09:17:49;;;;;;;47.17;44.58;;;;;;;;;;4949677;29;20126;-94
2023/07/26 09:20:44;;;;;;;51.60;48.72;;;;;;;;;;4938430;29;20031;-93
2023/07/26 09:23:33;;;;;;;45.05;42.65;;;;;;;;;;4894712;28;20054;-94
2023/07/26 09:26:30;;;;;;;41.80;39.50;;;;;;;;;;4900488;29;20134;-94
2023/07/26 09:29:12;;;;;;;39.92;37.83;;;;;;;;;;4900566;29;20073;-92
2023/07/26 09:32:11;;;;;;;40.42;38.28;;;;;;;;;;4887853;29;20060;-94
2023/07/26 09:34:55;;;;;;;45.67;43.22;;;;;;;;;;4886203;29;20029;-93
2023/07/26 09:43:46;;;;;;;41.35;39.13;;;;;;;;;;4883836;29;20093;-94
2023/07/26 09:46:28;;;;;;;62.90;57.78;;;;;;;;;;4887922;29;20045;-94
2023/07/26 09:48:58;;;;;;;53.15;49.15;;;;;;;;;;4894013;29;20036;-91
2023/07/26 09:51:25;;;;;;;48.80;45.92;;;;;;;;;;4917603;29;20135;-93
2023/07/26 09:53:55;;;;;;;44.92;42.50;;;;;;;;;;4937973;28;20060;-94
2023/07/26 09:56:21;;;;;;;45.55;43.13;;;;;;;;;;4981533;28;20061;-95
2023/07/26 09:58:50;;;;;;;55.55;52.05;;;;;;;;;;4983912;28;20034;-94
2023/07/26 10:01:24;;;;;;;44.10;41.80;;;;;;;;;;4979368;28;20037;-93
2023/07/26 10:04:32;;;;;;;46.83;44.05;;;;;;;;;;4979903;28;20074;-94
2023/07/26 10:07:12;;;;;;;41.70;39.33;;;;;;;;;;4921262;28;20047;-93
2023/07/26 10:09:48;;;;;;;38.40;36.38;;;;;;;;;;4997006;28;20026;-94
2023/07/26 10:12:14;;;;;;;38.92;36.83;;;;;;;;;;5000512;28;20026;-92
2023/07/26 10:15:31;;;;;;;44.08;41.70;;;;;;;;;;4981824;28;20035;-93
2023/07/26 10:18:04;;;;;;;37.25;35.22;;;;;;;;;;5001781;28;20026;-93
2023/07/26 10:20:30;;;;;;;;;;;;;;;;;;4999687;28;20035;-93
2023/07/26 10:23:15;;;;;;;34.33;32.38;;;;;;;;;;5003967;28;20379;-94
2023/07/26 10:25:41;;;;;;;39.90;37.53;;;;;;;;;;4983247;28;20085;-93
2023/07/26 10:28:09;;;;;;;39.40;36.80;;;;;;;;;;4961545;28;20035;-92
2023/07/26 10:30:38;;;;;;;36.58;34.58;;;;;;;;;;4960767;28;20023;-91
2023/07/26 10:33:16;;;;;;;168.82;100.40;;;;;;;;;;4960659;28;20042;-94
2023/07/26 10:35:45;;;;;;;67.65;62.22;;;;;;;;;;4960574;28;20026;-93
2023/07/26 10:38:19;;;;;;;40.80;38.47;;;;;;;;;;4960944;28;20034;-94
2023/07/26 10:41:27;;;;;;;;;;;;;;;;;;4959755;28;20035;-94
2023/07/26 10:43:43;;;;;;;34.22;32.25;;;;;;;;;;4974913;28;19921;-94
2023/07/26 10:46:13;;;;;;;47.58;44.70;;;;;;;;;;4960591;28;20045;-93
2023/07/26 10:48:43;;;;;;;31.48;29.58;;;;;;;;;;4964966;28;20102;-93
2023/07/26 10:51:31;;;;;;;33.20;31.40;;;;;;;;;;4976090;28;20030;-92
2023/07/26 10:54:20;;;;;;;32.53;30.63;;;;;;;;;;4965478;28;20046;-96
2023/07/26 10:56:49;;;;;;;35.58;33.67;;;;;;;;;;4963582;29;20027;-95
2023/07/26 11:02:04;;;;;;;33.97;32.08;;;;;;;;;;4985001;23;20057;-94
2023/07/26 11:13:22;;;;;;;33.47;31.60;;;;;;;;;;5633966;23;20084;-92
2023/07/26 11:15:52;;;;;;;32.42;30.63;;;;;;;;;;4984860;28;20041;-93
2023/07/26 11:18:37;;;;;;;;;;;;;;;;;;;;;
2023/07/26 11:24:00;;;;;;;36.33;34.22;;;;;;;;;;5111789;23;20050;-92
2023/07/26 11:26:44;;;;;;;36.65;34.65;;;;;;;;;;4999188;28;20033;-91
2023/07/26 11:29:24;;;;;;;37.03;34.83;;;;;;;;;;4999213;28;20053;-95
2023/07/26 11:32:09;;;;;;;68.75;63.33;;;;;;;;;;5015906;28;20044;-92
2023/07/26 11:34:38;;;;;;;47.35;44.63;;;;;;;;;;4998914;28;20029;-94
2023/07/26 11:40:17;;;;;;;53.67;50.03;;;;;;;;;;5016311;28;20079;-93
2023/07/26 11:42:55;;;;;;;47.90;44.95;;;;;;;;;;4998925;28;20037;-92
2023/07/26 11:45:54;;;;;;;34.97;32.72;;;;;;;;;;4997739;28;20409;-89
2023/07/26 11:48:20;;;;;;;73.18;65.93;;;;;;;;;;4997990;28;20038;-88
2023/07/26 11:50:49;;;;;;;43.08;40.53;;;;;;;;;;4997915;28;20471;-94
2023/07/26 11:53:16;;;;;;;52.63;49.47;;;;;;;;;;4998522;28;20087;-94
2023/07/26 11:55:46;;;;;;;50.42;47.15;;;;;;;;;;5003798;28;20088;-94
2023/07/26 11:58:12;;;;;;;50.55;46.63;;;;;;;;;;4998340;28;20510;-95
2023/07/26 12:00:41;;;;;;;38.72;36.60;;;;;;;;;;4998334;28;20021;-93
2023/07/26 12:03:10;;;;;;;40.92;38.53;;;;;;;;;;4998979;28;20112;-93
2023/07/26 12:05:57;;;;;;;43.53;41.13;;;;;;;;;;5006543;28;20022;-94
2023/07/26 12:08:33;;;;;;;43.20;40.65;;;;;;;;;;4998486;28;20029;-94
2023/07/26 12:11:11;;;;;;;60.65;56.50;;;;;;;;;;4997503;28;20034;-95
2023/07/26 12:14:01;;;;;;;54.35;51.15;;;;;;;;;;4997670;28;20030;-95
2023/07/26 12:16:38;;;;;;;49.70;46.65;;;;;;;;;;4996743;28;20091;-93
2023/07/26 12:19:13;;;;;;;42.83;40.38;;;;;;;;;;4997568;28;20558;-95
2023/07/26 12:22:23;;;;;;;81.60;74.40;;;;;;;;;;4997308;28;20155;-95
2023/07/26 12:25:08;;;;;;;84.15;76.82;;;;;;;;;;4982081;28;20487;-93
2023/07/26 12:27:44;;;;;;;41.72;39.33;;;;;;;;;;4998275;28;20356;-94
2023/07/26 12:30:42;;;;;;;50.47;47.38;;;;;;;;;;4997400;28;20029;-93
2023/07/26 12:33:14;;;;;;;84.68;77.72;;;;;;;;;;4900803;29;20044;-94
2023/07/26 12:36:07;;;;;;;111.10;99.55;;;;;;;;;;4900318;29;20032;-95
2023/07/26 12:39:01;;;;;;;88.68;81.40;;;;;;;;;;4841464;29;20190;-95
2023/07/26 12:41:27;;;;;;;178.57;167.48;;;;;;;;;;4832869;29;20069;-94
2023/07/26 12:44:00;;;;;;;249.18;228.30;;;;;;;;;;4979168;28;20195;-94
2023/07/26 12:46:26;;;;;;;252.50;187.27;;;;;;;;;;4999141;28;20117;-89
2023/07/26 12:48:55;;;;;;;49.45;46.63;;;;;;;;;;4997926;28;20022;-87
2023/07/26 12:51:31;;;;;;;132.32;116.68;;;;;;;;;;4997481;28;20040;-95
2023/07/26 12:53:57;;;;;;;118.00;107.90;;;;;;;;;;4997178;28;20038;-94
2023/07/26 12:56:33;;;;;;;86.32;80.22;;;;;;;;;;4996351;28;20026;-93
2023/07/26 12:59:05;;;;;;;103.95;96.68;;;;;;;;;;4996970;28;20117;-93
2023/07/26 13:01:31;;;;;;;108.57;99.40;;;;;;;;;;4997238;28;20113;-93
2023/07/26 13:04:00;;;;;;;113.78;103.13;;;;;;;;;;4997957;28;20036;-93
2023/07/26 13:06:29;;;;;;;65.22;60.72;;;;;;;;;;5001097;28;20034;-92
2023/07/26 13:08:58;;;;;;;63.35;59.05;;;;;;;;;;5015850;28;20034;-93
2023/07/26 13:11:27;;;;;;;71.28;66.18;;;;;;;;;;5010155;28;20033;-93
2023/07/26 13:13:53;;;;;;;79.55;73.70;;;;;;;;;;4997419;28;20387;-88
2023/07/26 13:16:25;;;;;;;164.20;153.48;;;;;;;;;;5015611;28;20106;-91
2023/07/26 13:19:19;;;;;;;38.50;36.35;;;;;;;;;;4996848;28;20026;-92
2023/07/26 13:21:51;;;;;;;54.85;50.28;;;;;;;;;;4994860;28;20061;-92
2023/07/26 13:24:17;;;;;;;70.07;65.17;;;;;;;;;;4997026;28;20034;-92
2023/07/26 13:26:49;;;;;;;62.30;58.17;;;;;;;;;;4996911;28;20315;-94
2023/07/26 13:29:15;;;;;;;322.05;239.52;;;;;;;;;;4997069;28;20479;-92
2023/07/26 13:32:17;;;;;;;71.40;66.75;;;;;;;;;;4996653;28;20026;-90
2023/07/26 13:34:46;;;;;;;65.90;60.50;;;;;;;;;;4996674;28;20096;-92
2023/07/26 13:37:15;;;;;;;192.48;130.77;;;;;;;;;;4997015;28;20491;-92
2023/07/26 13:39:57;;;;;;;70.75;63.75;;;;;;;;;;4997209;28;20084;-89
2023/07/26 13:42:26;;;;;;;108.45;94.13;;;;;;;;;;4998356;28;20034;-92
2023/07/26 13:45:11;;;;;;;77.10;69.93;;;;;;;;;;4997012;28;20029;-93
2023/07/26 13:47:41;;;;;;;37.15;34.92;;;;;;;;;;5008547;28;20017;-90
2023/07/26 13:50:07;;;;;;;114.28;96.78;;;;;;;;;;5014672;28;20518;-85
2023/07/26 13:52:33;;;;;;;35.10;33.08;;;;;;;;;;4997944;28;20559;-84
2023/07/26 13:54:59;;;;;;;54.67;51.20;;;;;;;;;;4996966;28;20092;-85
2023/07/26 13:57:26;;;;;;;87.50;82.10;;;;;;;;;;4995877;28;20121;-84
2023/07/26 13:59:52;;;;;;;30.92;29.00;;;;;;;;;;4996202;28;20026;-86
2023/07/26 14:02:18;;;;;;;35.42;33.28;;;;;;;;;;4996171;28;20046;-89
2023/07/26 14:04:44;;;;;;;35.42;33.20;;;;;;;;;;4997169;28;20022;-88
2023/07/26 14:07:11;;;;;;;40.45;37.85;;;;;;;;;;4996256;28;20026;-89
2023/07/26 14:09:49;;;;;;;36.20;33.75;;;;;;;;;;5000040;28;20033;-93
2023/07/26 14:12:18;;;;;;;54.22;50.20;;;;;;;;;;4999683;28;20133;-94
2023/07/26 14:14:51;;;;;;;32.58;30.63;;;;;;;;;;5000378;28;20037;-93
2023/07/26 14:17:21;;;;;;;31.08;29.17;;;;;;;;;;4999950;28;20033;-93
2023/07/26 14:19:47;;;;;;;34.53;32.53;;;;;;;;;;4999311;28;20037;-92
2023/07/26 14:22:13;;;;;;;31.38;29.58;;;;;;;;;;4999836;28;20046;-92
2023/07/26 14:24:39;;;;;;;44.28;41.47;;;;;;;;;;5000033;28;20035;-93
2023/07/26 14:27:11;;;;;;;33.75;31.80;;;;;;;;;;4994753;28;20913;-93
2023/07/26 14:29:38;;;;;;;27.98;26.38;;;;;;;;;;4996443;28;20070;-92
2023/07/26 14:32:07;;;;;;;31.63;29.60;;;;;;;;;;4996612;28;20454;-94
2023/07/26 14:34:52;;;;;;;37.00;34.65;;;;;;;;;;4996101;28;20447;-93
2023/07/26 14:37:19;;;;;;;33.35;31.45;;;;;;;;;;4999534;28;20033;-94
2023/07/26 14:39:53;;;;;;;32.20;30.38;;;;;;;;;;4975929;28;20031;-92
2023/07/26 14:42:31;;;;;;;30.23;28.33;;;;;;;;;;4960216;28;20046;-93
2023/07/26 14:45:03;;;;;;;42.60;39.72;;;;;;;;;;4960269;28;20062;-93
2023/07/26 14:47:35;;;;;;;28.00;26.40;;;;;;;;;;4956891;29;20027;-94
2023/07/26 14:50:04;;;;;;;40.47;38.13;;;;;;;;;;4956721;29;20481;-93
2023/07/26 14:52:30;;;;;;;38.47;36.25;;;;;;;;;;4940383;29;20066;-92
2023/07/26 14:54:59;;;;;;;33.15;31.15;;;;;;;;;;4955926;29;20110;-92
2023/07/26 14:57:28;;;;;;;37.85;35.63;;;;;;;;;;4956092;29;20039;-93
2023/07/26 15:00:03;;;;;;;64.95;59.45;;;;;;;;;;4957539;29;20035;-92
2023/07/26 15:02:38;;;;;;;31.52;29.73;;;;;;;;;;4941460;29;20042;-92
2023/07/26 15:05:16;;;;;;;35.55;33.42;;;;;;;;;;4972032;28;20030;-92
2023/07/26 15:07:59;;;;;;;53.55;49.90;;;;;;;;;;4974238;28;20531;-93
2023/07/26 15:10:29;;;;;;;31.25;29.52;;;;;;;;;;4975614;28;20037;-92
2023/07/26 15:13:03;;;;;;;32.38;30.40;;;;;;;;;;4998229;28;20116;-92
2023/07/26 15:15:33;;;;;;;34.30;32.35;;;;;;;;;;4998271;28;20030;-93
2023/07/26 15:18:05;;;;;;;50.63;47.47;;;;;;;;;;4998267;28;20041;-93
2023/07/26 15:20:34;;;;;;;28.03;26.43;;;;;;;;;;4991022;28;20030;-91
2023/07/26 15:23:00;;;;;;;34.75;32.65;;;;;;;;;;5004566;28;20050;-91
2023/07/26 15:25:34;;;;;;;39.00;36.58;;;;;;;;;;4998273;28;20045;-90
2023/07/26 15:28:00;;;;;;;33.13;31.23;;;;;;;;;;4998643;28;20026;-92
2023/07/26 15:30:27;;;;;;;29.17;27.38;;;;;;;;;;4998606;28;20033;-90
2023/07/26 15:32:56;;;;;;;29.15;27.40;;;;;;;;;;4998827;28;20045;-90
2023/07/26 15:35:22;;;;;;;31.10;29.15;;;;;;;;;;4998731;28;20021;-91
2023/07/26 15:37:49;;;;;;;38.17;35.95;;;;;;;;;;4998712;28;20113;-91
2023/07/26 15:40:15;;;;;;;32.65;30.80;;;;;;;;;;4998612;28;20026;-91
2023/07/26 15:42:41;;;;;;;47.78;44.38;;;;;;;;;;4998666;28;20141;-90
2023/07/26 15:45:11;;;;;;;30.35;28.45;;;;;;;;;;4998754;28;20104;-91
2023/07/26 15:47:40;;;;;;;45.83;43.05;;;;;;;;;;5002931;28;20030;-94
2023/07/26 15:50:17;;;;;;;33.75;31.75;;;;;;;;;;4980450;28;20126;-94
2023/07/26 15:52:52;;;;;;;32.22;30.23;;;;;;;;;;5050956;23;20045;-90
2023/07/26 15:55:22;;;;;;;34.70;32.75;;;;;;;;;;5022133;28;20064;-96
2023/07/26 15:57:54;;;;;;;28.13;26.35;;;;;;;;;;5045558;28;20112;-88
2023/07/26 16:03:24;;;;;;;26.80;25.20;;;;;;;;;;5057142;28;20043;-88
2023/07/26 16:05:51;;;;;;;32.72;30.45;;;;;;;;;;5030709;28;20502;-88
2023/07/26 16:08:20;;;;;;;39.78;36.95;;;;;;;;;;5017390;28;20025;-95
2023/07/26 16:10:52;;;;;;;38.15;35.97;;;;;;;;;;5028503;28;20083;-87
2023/07/26 16:13:23;;;;;;;40.97;38.65;;;;;;;;;;5034366;23;20054;-89
2023/07/26 16:15:52;;;;;;;35.55;33.33;;;;;;;;;;4994665;28;20019;-90
2023/07/26 16:18:18;;;;;;;35.70;33.60;;;;;;;;;;4994398;28;20034;-87
2023/07/26 16:20:45;;;;;;;37.85;35.72;;;;;;;;;;4994579;28;20022;-88
2023/07/26 16:23:11;;;;;;;31.33;29.52;;;;;;;;;;4994553;28;20093;-88
2023/07/26 16:25:47;;;;;;;32.78;30.77;;;;;;;;;;4994367;28;20110;-87
2023/07/26 16:28:23;;;;;;;33.83;31.77;;;;;;;;;;4992527;28;20048;-93
2023/07/26 16:30:52;;;;;;;35.47;33.25;;;;;;;;;;4986251;28;20065;-91
2023/07/26 16:33:21;;;;;;;44.03;41.20;;;;;;;;;;4994217;28;20054;-96
2023/07/26 16:36:13;;;;;;;40.78;38.17;;;;;;;;;;4978081;28;20427;-93
2023/07/26 16:38:39;;;;;;;29.05;27.35;;;;;;;;;;4982566;28;20034;-88
2023/07/26 16:41:08;;;;;;;29.25;27.45;;;;;;;;;;4985665;28;20128;-96
2023/07/26 16:46:38;;;;;;;34.53;32.50;;;;;;;;;;5006092;28;20022;-88
2023/07/26 16:49:16;;;;;;;40.20;37.72;;;;;;;;;;5004954;28;20050;-90
2023/07/26 16:51:48;;;;;;;27.25;25.65;;;;;;;;;;4990216;28;20038;-93
2023/07/26 16:54:22;;;;;;;47.00;44.25;;;;;;;;;;4993818;28;20030;-94
2023/07/26 16:57:02;;;;;;;41.47;38.30;;;;;;;;;;4993644;28;20050;-96
2023/07/26 16:59:39;;;;;;;53.25;50.20;;;;;;;;;;4971134;28;20112;-96
2023/07/26 17:02:10;;;;;;;35.75;33.65;;;;;;;;;;4997850;28;20060;-92
2023/07/26 17:04:43;;;;;;;33.47;31.60;;;;;;;;;;5007803;28;20031;-89
2023/07/26 17:07:12;;;;;;;31.77;29.85;;;;;;;;;;4978885;28;20027;-96
2023/07/26 17:09:44;;;;;;;35.78;33.53;;;;;;;;;;4975355;28;20035;-92
2023/07/26 17:12:12;;;;;;;29.80;27.75;;;;;;;;;;4974537;28;20047;-91
2023/07/26 17:14:38;;;;;;;29.52;27.83;;;;;;;;;;4978568;28;20035;-95
2023/07/26 17:17:13;;;;;;;33.60;31.38;;;;;;;;;;4978858;28;20027;-96
2023/07/26 17:19:39;;;;;;;26.45;24.75;;;;;;;;;;4986500;28;20029;-89
2023/07/26 17:22:05;;;;;;;39.58;37.22;;;;;;;;;;4994261;28;20096;-91
2023/07/26 17:24:40;;;;;;;29.00;27.23;;;;;;;;;;4997403;28;20437;-95
2023/07/26 17:27:06;;;;;;;31.85;29.92;;;;;;;;;;5000247;28;20109;-92
2023/07/26 17:29:33;;;;;;;37.88;35.55;;;;;;;;;;4996813;28;20035;-92
2023/07/26 17:31:59;;;;;;;31.73;29.80;;;;;;;;;;4975152;28;20027;-87
2023/07/26 17:34:26;;;;;;;33.50;31.33;;;;;;;;;;4973732;28;20030;-87
2023/07/26 17:36:53;;;;;;;40.40;38.03;;;;;;;;;;4976247;28;20023;-89
2023/07/26 17:39:35;;;;;;;37.78;35.40;;;;;;;;;;4979135;28;20085;-96
2023/07/26 17:44:54;;;;;;;38.22;36.05;;;;;;;;;;4983168;28;20070;-92
2023/07/26 17:47:23;;;;;;;44.30;41.92;;;;;;;;;;4983772;28;20022;-91
2023/07/26 17:49:52;;;;;;;39.78;37.53;;;;;;;;;;4998193;28;20038;-88
2023/07/26 17:52:18;;;;;;;46.25;43.72;;;;;;;;;;4997926;28;20038;-94
2023/07/26 17:54:54;;;;;;;47.38;44.53;;;;;;;;;;4979731;28;20034;-94
2023/07/26 17:57:21;;;;;;;42.85;40.60;;;;;;;;;;4996093;28;20038;-94
2023/07/26 17:59:47;;;;;;;34.63;32.65;;;;;;;;;;5014522;28;20074;-91
2023/07/26 18:02:16;;;;;;;39.28;36.92;;;;;;;;;;4979509;28;20035;-94
2023/07/26 18:04:42;;;;;;;27.65;26.02;;;;;;;;;;4977818;28;20572;-95
2023/07/26 18:07:10;;;;;;;30.25;28.52;;;;;;;;;;4978111;28;20029;-95
2023/07/26 18:09:36;;;;;;;27.60;25.80;;;;;;;;;;4978823;28;20054;-94
2023/07/26 18:12:07;;;;;;;31.40;29.27;;;;;;;;;;4977578;28;20050;-95
2023/07/26 18:14:34;;;;;;;19.23;18.02;;;;;;;;;;4978167;28;20035;-93
2023/07/26 18:17:00;;;;;;;23.90;22.20;;;;;;;;;;4962262;28;20035;-91
2023/07/26 18:19:32;;;;;;;17.20;16.13;;;;;;;;;;4977043;28;20086;-92
2023/07/26 18:22:04;;;;;;;20.73;19.52;;;;;;;;;;4977469;28;20081;-93
2023/07/26 18:24:30;;;;;;;20.80;19.60;;;;;;;;;;4977132;28;20039;-94
2023/07/26 18:26:59;;;;;;;19.38;17.77;;;;;;;;;;4977289;28;20023;-93
2023/07/26 18:29:42;;;;;;;;;;;;;;;;;;;;;
2023/07/26 18:32:15;;;;;;;19.50;18.38;;;;;;;;;;4997677;28;20026;-93
2023/07/26 18:34:54;;;;;;;;;;;;;;;;;;;;;
2023/07/26 18:37:29;;;;;;;18.15;16.98;;;;;;;;;;4978730;28;20049;-94
2023/07/26 18:39:55;;;;;;;20.42;19.23;;;;;;;;;;4989608;28;20035;-94
2023/07/26 18:42:22;;;;;;;25.95;24.35;;;;;;;;;;4989250;28;20475;-92
2023/07/26 18:44:51;;;;;;;19.65;18.55;;;;;;;;;;4996257;28;20030;-92
2023/07/26 18:47:17;;;;;;;22.73;21.27;;;;;;;;;;4996312;28;20055;-91
2023/07/26 18:49:49;;;;;;;20.73;19.48;;;;;;;;;;4990976;28;20543;-94
2023/07/26 18:52:15;;;;;;;19.33;18.02;;;;;;;;;;4979327;28;20027;-94
2023/07/26 18:54:44;;;;;;;21.58;20.38;;;;;;;;;;4975191;28;20081;-93
2023/07/26 18:57:11;;;;;;;16.35;15.32;;;;;;;;;;4978748;28;20034;-95
2023/07/26 18:59:37;;;;;;;21.80;20.50;;;;;;;;;;5002928;28;20042;-91
2023/07/26 19:02:12;;;;;;;18.02;16.88;;;;;;;;;;4973949;28;20038;-92
2023/07/26 19:04:44;;;;;;;22.33;20.77;;;;;;;;;;4978705;28;20033;-91
2023/07/26 19:07:10;;;;;;;21.58;20.30;;;;;;;;;;4981875;28;20031;-93
2023/07/26 19:09:36;;;;;;;24.60;23.23;;;;;;;;;;4976545;28;20023;-94
2023/07/26 19:12:10;;;;;;;25.95;24.42;;;;;;;;;;4978425;28;20055;-93
2023/07/26 19:14:36;;;;;;;19.63;18.50;;;;;;;;;;4989963;28;20109;-92
2023/07/26 19:17:03;;;;;;;20.77;19.48;;;;;;;;;;4987921;28;20719;-94
2023/07/26 19:19:32;;;;;;;16.33;15.32;;;;;;;;;;4988018;28;20197;-93
2023/07/26 19:21:58;;;;;;;17.52;16.55;;;;;;;;;;4978179;28;20500;-93
2023/07/26 19:24:25;;;;;;;20.60;19.42;;;;;;;;;;4989566;28;20038;-94
2023/07/26 19:27:00;;;;;;;21.60;20.38;;;;;;;;;;4994550;28;20085;-92
2023/07/26 19:29:37;;;;;;;15.48;14.52;;;;;;;;;;4997348;28;20036;-92
2023/07/26 19:32:03;;;;;;;20.08;18.83;;;;;;;;;;4996179;28;20023;-92
2023/07/26 19:35:48;;;;;;;22.48;21.13;;;;;;;;;;4996208;28;20034;-91
2023/07/26 19:37:49;;;;;;;19.00;17.95;;;;;;;;;;4985712;28;20503;-91
2023/07/26 19:40:18;;;;;;;22.23;20.42;;;;;;;;;;4989633;28;20049;-92
2023/07/26 19:42:44;;;;;;;20.00;18.77;;;;;;;;;;4999024;28;20400;-92
2023/07/26 19:45:14;;;;;;;20.90;19.73;;;;;;;;;;5009943;28;20030;-92
2023/07/26 19:47:40;;;;;;;19.65;18.50;;;;;;;;;;4993642;28;20042;-92
2023/07/26 19:50:09;;;;;;;20.55;18.92;;;;;;;;;;4977694;28;20503;-93
2023/07/26 19:52:37;;;;;;;22.85;21.50;;;;;;;;;;4976888;28;20033;-93
2023/07/26 19:55:11;;;;;;;20.42;19.00;;;;;;;;;;4990685;28;20125;-91
2023/07/26 19:57:40;;;;;;;16.15;15.23;;;;;;;;;;5000230;28;20481;-94
2023/07/26 20:00:06;;;;;;;25.17;23.73;;;;;;;;;;4995236;28;20038;-93
2023/07/26 20:02:32;;;;;;;19.23;18.15;;;;;;;;;;4994805;28;20056;-93
2023/07/26 20:04:58;;;;;;;24.80;23.40;;;;;;;;;;4996524;28;20022;-92
2023/07/26 20:07:24;;;;;;;21.98;20.60;;;;;;;;;;4995090;28;20018;-93
2023/07/26 20:09:50;;;;;;;22.35;21.10;;;;;;;;;;4990869;28;20081;-95
2023/07/26 20:12:17;;;;;;;22.95;21.52;;;;;;;;;;4975342;28;20078;-93
2023/07/26 20:14:46;;;;;;;21.75;20.45;;;;;;;;;;4975276;28;20034;-90
2023/07/26 20:17:18;;;;;;;21.20;19.98;;;;;;;;;;4975280;28;20034;-93
2023/07/26 20:19:47;;;;;;;15.40;14.40;;;;;;;;;;4978358;28;20472;-93
2023/07/26 20:22:13;;;;;;;25.02;23.58;;;;;;;;;;4975138;28;20288;-94
2023/07/26 20:24:40;;;;;;;22.35;21.00;;;;;;;;;;4974991;28;20476;-94
2023/07/26 20:27:09;;;;;;;31.08;29.25;;;;;;;;;;4988830;28;20581;-93
2023/07/26 20:29:36;;;;;;;21.15;19.80;;;;;;;;;;4985799;28;20034;-93
2023/07/26 20:32:05;;;;;;;19.80;18.70;;;;;;;;;;4976212;28;20066;-93
2023/07/26 20:34:34;;;;;;;25.83;24.25;;;;;;;;;;4990975;28;20037;-94
2023/07/26 20:37:03;;;;;;;21.48;20.27;;;;;;;;;;4977704;28;20058;-93
2023/07/26 20:39:35;;;;;;;19.83;18.67;;;;;;;;;;4980227;28;20027;-95
2023/07/26 20:42:01;;;;;;;52.08;47.35;;;;;;;;;;4988828;28;20129;-95
2023/07/26 20:44:33;;;;;;;22.92;21.60;;;;;;;;;;4993941;28;20085;-94
2023/07/26 20:47:02;;;;;;;21.10;19.80;;;;;;;;;;4994464;28;20113;-94
2023/07/26 20:49:31;;;;;;;29.80;27.83;;;;;;;;;;4993948;28;20031;-94
2023/07/26 20:51:57;;;;;;;22.08;20.80;;;;;;;;;;4989103;28;20030;-93
2023/07/26 20:54:26;;;;;;;24.02;22.27;;;;;;;;;;5005101;28;20034;-94
2023/07/26 20:56:59;;;;;;;21.83;20.63;;;;;;;;;;4986135;28;20027;-94
2023/07/26 20:59:25;;;;;;;20.63;19.35;;;;;;;;;;4974819;28;20031;-93
2023/07/26 21:01:57;;;;;;;23.80;22.00;;;;;;;;;;4974561;28;20038;-93
2023/07/26 21:04:23;;;;;;;18.13;16.80;;;;;;;;;;4993313;28;20034;-94
2023/07/26 21:06:52;;;;;;;20.40;19.05;;;;;;;;;;4994218;28;20022;-93
2023/07/26 21:09:20;;;;;;;23.85;22.52;;;;;;;;;;4998593;28;20090;-92
2023/07/26 21:11:46;;;;;;;20.52;19.20;;;;;;;;;;4996258;28;20024;-94
2023/07/26 21:14:15;;;;;;;17.58;16.58;;;;;;;;;;4994100;28;20042;-94
2023/07/26 21:16:42;;;;;;;20.33;18.90;;;;;;;;;;4984230;28;20502;-94
2023/07/26 21:19:08;;;;;;;26.55;25.10;;;;;;;;;;4984765;28;20113;-94
2023/07/26 21:21:37;;;;;;;24.92;23.42;;;;;;;;;;4993379;28;20117;-95
2023/07/26 21:24:12;;;;;;;19.98;18.77;;;;;;;;;;4993757;28;20080;-93
2023/07/26 21:26:38;;;;;;;22.77;21.48;;;;;;;;;;4993518;28;20038;-93
2023/07/26 21:29:07;;;;;;;34.38;32.40;;;;;;;;;;4992073;28;20027;-92
2023/07/26 21:31:36;;;;;;;31.77;29.73;;;;;;;;;;4974085;28;20031;-94
2023/07/26 21:34:05;;;;;;;32.78;30.88;;;;;;;;;;4974293;28;20078;-93
2023/07/26 21:36:37;;;;;;;28.42;26.67;;;;;;;;;;4973751;28;20089;-93
2023/07/26 21:39:14;;;;;;;23.30;21.95;;;;;;;;;;4974512;28;20027;-93
2023/07/26 21:41:43;;;;;;;36.35;34.28;;;;;;;;;;4973777;28;20595;-92
2023/07/26 21:44:09;;;;;;;29.85;27.92;;;;;;;;;;4974190;28;20078;-94
2023/07/26 21:46:35;;;;;;;44.60;41.65;;;;;;;;;;4973708;28;20038;-93
2023/07/26 21:49:17;;;;;;;22.83;21.40;;;;;;;;;;4973860;28;20038;-93
2023/07/26 21:51:43;;;;;;;38.92;36.47;;;;;;;;;;4974049;28;20019;-94
2023/07/26 21:54:09;;;;;;;30.60;28.88;;;;;;;;;;4973909;28;20019;-93
2023/07/26 21:56:38;;;;;;;24.60;23.20;;;;;;;;;;4974156;28;20043;-93
2023/07/26 21:59:04;;;;;;;28.85;26.70;;;;;;;;;;4958612;28;20065;-92
2023/07/26 22:01:36;;;;;;;33.00;31.05;;;;;;;;;;4993431;28;20061;-92
2023/07/26 22:04:05;;;;;;;30.25;28.25;;;;;;;;;;4993593;28;20030;-92
2023/07/26 22:06:32;;;;;;;46.42;43.67;;;;;;;;;;4993287;28;20061;-93
2023/07/26 22:09:05;;;;;;;32.40;30.50;;;;;;;;;;4993209;28;20026;-93
2023/07/26 22:11:34;;;;;;;25.50;23.95;;;;;;;;;;4993341;28;20034;-93
2023/07/26 22:14:00;;;;;;;31.50;29.63;;;;;;;;;;4992895;28;20054;-92
2023/07/26 22:16:32;;;;;;;28.23;26.55;;;;;;;;;;4976193;28;20034;-91
2023/07/26 22:19:01;;;;;;;37.60;34.95;;;;;;;;;;4993044;28;20113;-93
2023/07/26 22:21:35;;;;;;;30.20;28.35;;;;;;;;;;4992905;28;20488;-92
2023/07/26 22:24:08;;;;;;;30.08;28.25;;;;;;;;;;4992961;28;20042;-93
2023/07/26 22:26:37;;;;;;;22.30;20.65;;;;;;;;;;4992812;28;20049;-92
2023/07/26 22:29:09;;;;;;;28.02;26.30;;;;;;;;;;4993843;28;20035;-93
2023/07/26 22:31:38;;;;;;;33.80;31.80;;;;;;;;;;4997010;28;20049;-93
2023/07/26 22:37:20;;;;;;;22.50;21.20;;;;;;;;;;4997781;28;20086;-93
2023/07/26 22:39:55;;;;;;;28.33;26.60;;;;;;;;;;4996336;28;20281;-93
2023/07/26 22:42:24;;;;;;;31.83;29.98;;;;;;;;;;4998952;28;20042;-94
2023/07/26 22:44:53;;;;;;;25.15;23.42;;;;;;;;;;5012591;28;20023;-93
2023/07/26 22:47:24;;;;;;;29.05;27.08;;;;;;;;;;4997680;28;20121;-91
2023/07/26 22:49:54;;;;;;;33.92;31.88;;;;;;;;;;4992076;28;20046;-92
2023/07/26 22:52:21;;;;;;;26.27;24.63;;;;;;;;;;4987200;28;20082;-93
2023/07/26 22:54:50;;;;;;;32.08;30.23;;;;;;;;;;4978041;28;20479;-92
2023/07/26 22:57:19;;;;;;;29.77;28.05;;;;;;;;;;4977335;28;20035;-92
2023/07/26 22:59:49;;;;;;;28.98;27.13;;;;;;;;;;4976849;28;20031;-92
2023/07/26 23:02:15;;;;;;;24.30;22.50;;;;;;;;;;4976287;28;20495;-91
2023/07/26 23:04:47;;;;;;;32.28;30.48;;;;;;;;;;4981750;28;20044;-91
2023/07/26 23:07:13;;;;;;;24.73;23.13;;;;;;;;;;4996159;28;20373;-92
2023/07/26 23:09:39;;;;;;;30.20;28.45;;;;;;;;;;4996482;28;20026;-92
2023/07/26 23:14:51;;;;;;;34.47;32.22;;;;;;;;;;4997037;28;20077;-91
2023/07/26 23:17:23;;;;;;;31.63;29.80;;;;;;;;;;4996120;28;20146;-91
2023/07/26 23:23:01;;;;;;;19.02;17.85;;;;;;;;;;4977525;28;20090;-92